Historique des mesures à Cassis (13260), France
Quotidien Résumé Mai 1, 2017 Unités:  Métrique    US   Métrique/US
« Précédent (Jour)
Suivant (Jour) »
Quotidien Hebdomadaire Mensuel Annuel Période au choix
  Maximum: Minimum: Moyenne:
Température: TemperatureC °C 8.3 °C 12.1 °C
Point de rosée: DewpointC °C 4.4 °C 5.8 °C
Humidité: Humidity % 46 % 63 %
Vitesse du vent: 0 km/h 5.1 km/h 21.7 km/h
Rafales: 0 km/h - -
Vent:- - South
Pression: PressurehPa hPa 1007.7 hPa -
Précipitations: 7.9 mm    
Historical Graphs
 
 
Mesures pour : Mai 1, 2017
Heure Temperature Point de rosée Pression Vent Vitesse du vent Rafales Humidité Pluie (par heure) Conditions
TemperatureC °C DewpointC °C PressurehPa hPa Calm     Humidity % HourlyPrecipMM mm SoftwareType W/m2
00:10 13.8 °C 10.2 °C 1007.7 hPa SE 7.6 km/h 8 km/h 79 % 1.5 mm open2300-1.11 W/m2
01:10 13.3 °C 10.4 °C 1008.4 hPa WNW 9.3 km/h 9.3 km/h 83 % 5.1 mm open2300-1.11 W/m2
02:11 9.6 °C 6.7 °C 1008.7 hPa NW 17.9 km/h 28.5 km/h 82 % 0.0 mm open2300-1.11 W/m2
03:10 9.0 °C 6.1 °C 1008.7 hPa NNW 41.7 km/h 41.7 km/h 82 % 0.0 mm open2300-1.11 W/m2
04:10 8.6 °C 5.5 °C 1009.4 hPa North 24.8 km/h 28.5 km/h 81 % 1.0 mm open2300-1.11 W/m2
05:11 8.3 °C 5.4 °C 1009.4 hPa NNE 15.6 km/h 15.6 km/h 82 % 1.0 mm open2300-1.11 W/m2
06:10 8.8 °C 5.3 °C 1009.7 hPa West 26.7 km/h 26.7 km/h 79 % 0.0 mm open2300-1.11 W/m2
07:10 8.3 °C 4.9 °C 1010.0 hPa North 39.9 km/h 39.9 km/h 79 % 0.0 mm open2300-1.11 W/m2
08:10 9.9 °C 4.9 °C 1010.7 hPa North 19.6 km/h 26.7 km/h 71 % 0.0 mm open2300-1.11 W/m2
09:11 9.4 °C 4.4 °C 1011.1 hPa North 27.7 km/h 37.5 km/h 71 % 0.0 mm open2300-1.11 W/m2
10:10 10.1 °C 4.7 °C 1011.4 hPa NNE 24.8 km/h 41.2 km/h 69 % 0.0 mm open2300-1.11 W/m2
11:10 12.3 °C 5.4 °C 1011.7 hPa NE 24.8 km/h 46.8 km/h 63 % 0.0 mm open2300-1.11 W/m2
12:10 13.1 °C 5.5 °C 1011.7 hPa NE 21.6 km/h 63.7 km/h 60 % 0.0 mm open2300-1.11 W/m2
13:10 14.7 °C 6.2 °C 1011.7 hPa NNE 19.2 km/h 51 km/h 57 % 0.0 mm open2300-1.11 W/m2
14:10 15.4 °C 6.1 °C 1012.1 hPa WNW 36 km/h 36 km/h 54 % 0.0 mm open2300-1.11 W/m2
15:10 16.3 °C 6.4 °C 1012.1 hPa NW 27.2 km/h 39.4 km/h 52 % 0.0 mm open2300-1.11 W/m2
16:10 16.1 °C 5.4 °C 1012.4 hPa North 15.6 km/h 24.8 km/h 49 % 0.0 mm open2300-1.11 W/m2
17:10 16.5 °C 4.8 °C 1012.4 hPa NNW 27.2 km/h 27.2 km/h 46 % 0.0 mm open2300-1.11 W/m2
18:10 16.6 °C 5.2 °C 1012.8 hPa NW 36 km/h 54.9 km/h 47 % 0.0 mm open2300-1.11 W/m2
19:10 16.4 °C 6.8 °C 1013.4 hPa North 33.6 km/h 33.6 km/h 53 % 0.0 mm open2300-1.11 W/m2
20:10 15.3 °C 7.6 °C 1014.1 hPa NW 16.9 km/h 24.8 km/h 60 % 0.0 mm open2300-1.11 W/m2
21:10 14.8 °C 6.6 °C 1014.8 hPa NW 5.1 km/h 17.9 km/h 58 % 0.0 mm open2300-1.11 W/m2
22:11 13.9 °C 5.3 °C 1015.5 hPa NW 14 km/h 15 km/h 56 % 0.0 mm open2300-1.11 W/m2
23:10 13.2 °C 4.8 °C 1015.5 hPa NNW 10.9 km/h 30.1 km/h 57 % 0.0 mm open2300-1.11 W/m2
Observations météo à CASSIS
WU-History script by Weather Underground - 1 mb